Time;durP1;ratioP1;P1;durP2;ratioP2;P2;SDS_P1;SDS_P2;PMS_P1;PMS_P2;Temp;Humidity;BMP_temperature;BMP_pressure;BME280_temperature;BME280_humidity;BME280_pressure;Samples;Min_cycle;Max_cycle;Signal;HPM_P1;HPM_P2
2023/06/28 00:00:06;;;;;;;9.30;2.73;;;;;;;;;;5051490;28;20421;-48
2023/06/28 00:02:37;;;;;;;2.53;2.23;;;;;;;;;;5051375;28;20424;-49
2023/06/28 00:05:04;;;;;;;4.30;2.23;;;;;;;;;;5051504;28;20419;-48
2023/06/28 00:07:30;;;;;;;2.20;2.10;;;;;;;;;;5050665;28;20461;-49
2023/06/28 00:09:56;;;;;;;8.33;3.17;;;;;;;;;;5051686;28;20919;-50
2023/06/28 00:12:22;;;;;;;2.70;1.97;;;;;;;;;;5051580;28;20409;-50
2023/06/28 00:14:48;;;;;;;2.57;2.33;;;;;;;;;;5050289;28;20391;-48
2023/06/28 00:17:15;;;;;;;4.83;2.00;;;;;;;;;;5051276;28;20792;-48
2023/06/28 00:19:47;;;;;;;6.70;2.20;;;;;;;;;;5051191;28;20418;-48
2023/06/28 00:22:13;;;;;;;2.33;2.13;;;;;;;;;;5051749;28;20429;-50
2023/06/28 00:24:39;;;;;;;3.00;2.10;;;;;;;;;;5051314;28;20425;-49
2023/06/28 00:27:05;;;;;;;3.70;2.30;;;;;;;;;;5051325;28;20523;-48
2023/06/28 00:29:31;;;;;;;5.00;2.70;;;;;;;;;;5051179;28;20420;-49
2023/06/28 00:31:57;;;;;;;5.53;2.20;;;;;;;;;;5051355;28;20401;-46
2023/06/28 00:34:23;;;;;;;4.07;2.20;;;;;;;;;;5051442;28;20667;-49
2023/06/28 00:36:50;;;;;;;3.77;2.50;;;;;;;;;;5051244;28;20435;-49
2023/06/28 00:39:16;;;;;;;2.90;2.30;;;;;;;;;;5051049;28;20960;-46
2023/06/28 00:41:42;;;;;;;10.13;2.40;;;;;;;;;;5051075;28;20404;-49
2023/06/28 00:44:08;;;;;;;3.33;2.53;;;;;;;;;;5050363;28;20449;-48
2023/06/28 00:46:35;;;;;;;2.87;1.90;;;;;;;;;;5051035;28;20559;-47
2023/06/28 00:49:02;;;;;;;6.47;2.33;;;;;;;;;;5051284;28;20445;-48
2023/06/28 00:51:29;;;;;;;5.53;2.40;;;;;;;;;;5050783;28;20903;-48
2023/06/28 00:53:55;;;;;;;4.17;2.30;;;;;;;;;;5051062;28;20395;-49
2023/06/28 00:56:22;;;;;;;3.57;2.83;;;;;;;;;;5051312;28;20861;-49
2023/06/28 00:58:48;;;;;;;3.80;2.20;;;;;;;;;;5050694;28;20383;-49
2023/06/28 01:01:14;;;;;;;3.00;2.63;;;;;;;;;;5050487;28;20896;-48
2023/06/28 01:03:40;;;;;;;7.67;2.30;;;;;;;;;;5050324;28;20403;-46
2023/06/28 01:06:06;;;;;;;6.43;2.70;;;;;;;;;;5050408;28;20964;-46
2023/06/28 01:08:32;;;;;;;6.87;2.90;;;;;;;;;;5050890;28;20391;-50
2023/06/28 01:10:58;;;;;;;2.70;2.50;;;;;;;;;;5050770;28;20376;-46
2023/06/28 01:13:24;;;;;;;3.73;2.30;;;;;;;;;;5049745;28;20424;-44
2023/06/28 01:15:50;;;;;;;2.33;2.13;;;;;;;;;;5051109;28;20443;-49
2023/06/28 01:18:19;;;;;;;5.60;2.27;;;;;;;;;;5051694;28;20392;-49
2023/06/28 01:20:45;;;;;;;3.40;2.10;;;;;;;;;;5054512;28;20455;-49
2023/06/28 01:23:11;;;;;;;4.53;2.60;;;;;;;;;;5054604;28;20892;-48
2023/06/28 01:25:38;;;;;;;4.97;2.10;;;;;;;;;;5054238;28;20446;-47
2023/06/28 01:28:04;;;;;;;3.50;2.60;;;;;;;;;;5054379;28;20869;-50
2023/06/28 01:30:30;;;;;;;2.47;2.27;;;;;;;;;;5054066;28;20503;-48
2023/06/28 01:32:56;;;;;;;9.33;3.33;;;;;;;;;;5054351;28;20433;-48
2023/06/28 01:35:22;;;;;;;7.10;3.20;;;;;;;;;;5054107;28;20402;-47
2023/06/28 01:37:49;;;;;;;6.77;2.90;;;;;;;;;;5054191;28;20490;-47
2023/06/28 01:40:16;;;;;;;7.40;2.97;;;;;;;;;;5053776;28;20413;-48
2023/06/28 01:42:42;;;;;;;3.70;2.90;;;;;;;;;;5054110;28;20385;-50
2023/06/28 01:45:08;;;;;;;6.67;2.57;;;;;;;;;;5053038;28;20425;-49
2023/06/28 01:47:35;;;;;;;4.07;2.17;;;;;;;;;;5053856;28;20495;-50
2023/06/28 01:50:00;;;;;;;3.33;2.47;;;;;;;;;;5053931;28;20390;-50
2023/06/28 01:52:26;;;;;;;2.93;2.73;;;;;;;;;;5053956;28;20442;-48
2023/06/28 01:54:52;;;;;;;3.40;2.40;;;;;;;;;;5059468;28;20388;-49
2023/06/28 01:57:18;;;;;;;3.67;2.50;;;;;;;;;;5053647;28;20415;-48
2023/06/28 01:59:44;;;;;;;4.33;2.60;;;;;;;;;;5053609;28;20779;-49
2023/06/28 02:02:10;;;;;;;2.97;2.47;;;;;;;;;;5053977;28;20411;-48
2023/06/28 02:04:36;;;;;;;3.20;2.60;;;;;;;;;;5053746;28;20793;-49
2023/06/28 02:07:02;;;;;;;3.60;2.43;;;;;;;;;;5053479;28;20439;-48
2023/06/28 02:09:28;;;;;;;7.03;2.67;;;;;;;;;;5053548;28;20440;-48
2023/06/28 02:11:54;;;;;;;3.60;2.50;;;;;;;;;;5053349;28;20431;-47
2023/06/28 02:14:20;;;;;;;5.03;3.00;;;;;;;;;;5052928;28;20728;-49
2023/06/28 02:16:46;;;;;;;5.73;2.80;;;;;;;;;;5053584;28;20949;-48
2023/06/28 02:19:12;;;;;;;3.47;2.67;;;;;;;;;;5053458;28;20538;-46
2023/06/28 02:21:42;;;;;;;4.00;2.97;;;;;;;;;;5052050;28;20866;-49
2023/06/28 02:24:08;;;;;;;4.23;3.00;;;;;;;;;;5053202;28;20390;-47
2023/06/28 02:26:35;;;;;;;3.37;2.77;;;;;;;;;;5053218;28;20446;-49
2023/06/28 02:29:01;;;;;;;3.23;2.90;;;;;;;;;;5053290;28;20380;-50
2023/06/28 02:31:26;;;;;;;6.23;2.93;;;;;;;;;;5052274;28;20968;-48
2023/06/28 02:33:52;;;;;;;2.57;2.30;;;;;;;;;;5053139;28;20424;-48
2023/06/28 02:36:18;;;;;;;2.63;2.43;;;;;;;;;;5053063;28;20478;-47
2023/06/28 02:38:44;;;;;;;13.83;2.77;;;;;;;;;;5052918;28;20383;-47
2023/06/28 02:41:11;;;;;;;5.50;3.00;;;;;;;;;;5052718;28;20497;-50
2023/06/28 02:43:37;;;;;;;6.53;3.20;;;;;;;;;;5051840;28;20414;-46
2023/06/28 02:46:03;;;;;;;3.13;2.83;;;;;;;;;;5048080;28;20461;-49
2023/06/28 02:48:28;;;;;;;4.30;2.83;;;;;;;;;;5052779;28;20386;-49
2023/06/28 02:50:54;;;;;;;3.70;2.60;;;;;;;;;;5052610;28;20384;-48
2023/06/28 02:53:21;;;;;;;4.43;2.90;;;;;;;;;;5052647;28;20391;-48
2023/06/28 02:55:47;;;;;;;4.57;3.10;;;;;;;;;;5052763;28;20381;-49
2023/06/28 02:58:13;;;;;;;3.17;2.87;;;;;;;;;;5052795;28;20383;-48
2023/06/28 03:00:39;;;;;;;4.37;2.80;;;;;;;;;;5052500;28;20466;-49
2023/06/28 03:03:09;;;;;;;3.20;2.87;;;;;;;;;;5052780;28;20387;-48
2023/06/28 03:05:35;;;;;;;4.63;2.80;;;;;;;;;;5052381;28;20409;-46
2023/06/28 03:08:01;;;;;;;3.53;2.83;;;;;;;;;;5052304;28;20471;-47
2023/06/28 03:10:26;;;;;;;4.70;3.40;;;;;;;;;;5052352;28;20427;-47
2023/06/28 03:12:52;;;;;;;8.37;2.80;;;;;;;;;;5051776;28;20967;-49
2023/06/28 03:15:20;;;;;;;7.97;3.73;;;;;;;;;;5052411;28;20406;-50
2023/06/28 03:17:46;;;;;;;4.10;2.60;;;;;;;;;;5052218;28;20415;-49
2023/06/28 03:20:12;;;;;;;4.00;2.70;;;;;;;;;;5051991;28;20465;-46
2023/06/28 03:22:38;;;;;;;6.80;3.07;;;;;;;;;;5052215;28;20761;-49
2023/06/28 03:25:04;;;;;;;4.50;2.90;;;;;;;;;;5052324;28;20882;-49
2023/06/28 03:27:30;;;;;;;5.83;2.97;;;;;;;;;;5037784;28;20452;-49
2023/06/28 03:29:56;;;;;;;5.83;3.33;;;;;;;;;;5051960;28;20394;-49
2023/06/28 03:32:22;;;;;;;5.50;2.77;;;;;;;;;;5052136;28;20372;-48
2023/06/28 03:34:48;;;;;;;6.97;2.90;;;;;;;;;;5052479;28;20399;-48
2023/06/28 03:37:16;;;;;;;4.23;3.13;;;;;;;;;;5051702;28;20442;-49
2023/06/28 03:39:42;;;;;;;4.07;3.23;;;;;;;;;;5051629;28;20793;-49
2023/06/28 03:42:08;;;;;;;15.20;3.40;;;;;;;;;;5051867;28;20916;-49
2023/06/28 03:44:34;;;;;;;4.33;3.10;;;;;;;;;;5050871;28;20452;-49
2023/06/28 03:47:00;;;;;;;2.53;2.33;;;;;;;;;;5051467;28;20651;-48
2023/06/28 03:49:26;;;;;;;2.90;2.70;;;;;;;;;;5051542;28;20905;-50
2023/06/28 03:51:52;;;;;;;3.23;2.87;;;;;;;;;;5051626;28;20408;-46
2023/06/28 03:54:18;;;;;;;3.27;2.97;;;;;;;;;;5051775;28;20416;-48
2023/06/28 03:56:44;;;;;;;6.23;3.00;;;;;;;;;;5051758;28;20443;-47
2023/06/28 03:59:10;;;;;;;2.90;2.70;;;;;;;;;;5051648;28;20421;-46
2023/06/28 04:01:36;;;;;;;6.50;3.27;;;;;;;;;;5051403;28;20756;-49
2023/06/28 04:04:02;;;;;;;5.90;3.40;;;;;;;;;;5051555;28;20795;-49
2023/06/28 04:06:28;;;;;;;6.53;3.40;;;;;;;;;;5051345;28;20497;-49
2023/06/28 04:08:54;;;;;;;5.43;3.07;;;;;;;;;;5051597;28;20410;-50
2023/06/28 04:11:20;;;;;;;8.23;3.43;;;;;;;;;;5048950;28;20377;-48
2023/06/28 04:13:46;;;;;;;3.13;2.83;;;;;;;;;;5050661;28;20442;-49
2023/06/28 04:16:12;;;;;;;6.00;3.30;;;;;;;;;;5051287;28;20444;-48
2023/06/28 04:18:38;;;;;;;5.20;3.40;;;;;;;;;;5051262;28;20389;-46
2023/06/28 04:21:04;;;;;;;7.03;3.27;;;;;;;;;;5051246;28;20507;-49
2023/06/28 04:23:29;;;;;;;4.20;3.07;;;;;;;;;;5051321;28;20393;-49
2023/06/28 04:25:57;;;;;;;4.17;3.37;;;;;;;;;;5051388;28;20379;-49
2023/06/28 04:28:23;;;;;;;5.40;3.40;;;;;;;;;;5051450;28;20883;-49
2023/06/28 04:30:49;;;;;;;4.40;3.27;;;;;;;;;;5051173;28;20814;-49
2023/06/28 04:33:18;;;;;;;4.80;3.53;;;;;;;;;;5051140;28;20463;-49
2023/06/28 04:35:46;;;;;;;3.43;3.23;;;;;;;;;;5051319;28;20507;-49
2023/06/28 04:38:13;;;;;;;5.00;3.17;;;;;;;;;;5051452;28;20419;-50
2023/06/28 04:40:39;;;;;;;5.43;3.90;;;;;;;;;;5051031;28;20947;-49
2023/06/28 04:43:10;;;;;;;5.50;3.50;;;;;;;;;;5051358;28;20388;-50
2023/06/28 04:45:39;;;;;;;3.50;2.80;;;;;;;;;;5050252;28;20422;-48
2023/06/28 04:48:08;;;;;;;6.07;3.20;;;;;;;;;;5051133;28;20804;-48
2023/06/28 04:50:36;;;;;;;4.03;3.27;;;;;;;;;;5050577;28;20755;-49
2023/06/28 04:53:05;;;;;;;5.80;3.73;;;;;;;;;;5051674;28;20395;-47
2023/06/28 04:55:35;;;;;;;5.83;3.30;;;;;;;;;;5055008;28;20991;-49
2023/06/28 04:58:05;;;;;;;4.20;3.50;;;;;;;;;;5055030;28;20573;-49
2023/06/28 05:00:31;;;;;;;4.30;3.90;;;;;;;;;;5054883;28;20399;-48
2023/06/28 05:02:59;;;;;;;9.83;3.67;;;;;;;;;;5055065;28;20382;-48
2023/06/28 05:05:26;;;;;;;4.13;3.73;;;;;;;;;;5055169;28;20428;-49
2023/06/28 05:07:55;;;;;;;5.73;3.23;;;;;;;;;;5054590;28;20486;-49
2023/06/28 05:10:22;;;;;;;4.10;3.70;;;;;;;;;;5054545;28;20425;-49
2023/06/28 05:12:50;;;;;;;9.03;4.13;;;;;;;;;;5053821;28;20406;-49
2023/06/28 05:15:16;;;;;;;5.57;3.80;;;;;;;;;;5054587;28;20416;-46
2023/06/28 05:17:43;;;;;;;4.13;3.73;;;;;;;;;;5054520;28;21000;-48
2023/06/28 05:20:09;;;;;;;8.77;3.57;;;;;;;;;;5054985;28;20399;-50
2023/06/28 05:22:35;;;;;;;5.10;3.20;;;;;;;;;;5054494;28;20383;-48
2023/06/28 05:25:01;;;;;;;5.90;3.70;;;;;;;;;;5054426;28;20435;-49
2023/06/28 05:27:27;;;;;;;6.30;4.47;;;;;;;;;;5054141;28;20469;-48
2023/06/28 05:29:53;;;;;;;11.00;4.00;;;;;;;;;;5054240;28;20428;-48
2023/06/28 05:32:19;;;;;;;8.20;4.20;;;;;;;;;;5054244;28;20406;-45
2023/06/28 05:34:45;;;;;;;5.10;3.80;;;;;;;;;;5054292;28;20410;-49
2023/06/28 05:37:11;;;;;;;7.33;4.47;;;;;;;;;;5054696;28;20432;-44
2023/06/28 05:39:36;;;;;;;7.90;3.63;;;;;;;;;;5054257;28;20917;-43
2023/06/28 05:42:03;;;;;;;4.70;3.43;;;;;;;;;;5053024;28;20511;-43
2023/06/28 05:44:28;;;;;;;9.27;4.47;;;;;;;;;;5054064;28;20388;-43
2023/06/28 05:46:54;;;;;;;8.73;3.43;;;;;;;;;;5047887;28;20564;-44
2023/06/28 05:49:20;;;;;;;7.53;3.90;;;;;;;;;;5054155;28;20389;-43
2023/06/28 05:51:46;;;;;;;9.40;3.60;;;;;;;;;;5053684;28;20432;-44
2023/06/28 05:54:12;;;;;;;6.17;3.57;;;;;;;;;;5053945;28;20411;-47
2023/06/28 05:56:38;;;;;;;4.07;3.20;;;;;;;;;;5054016;28;20430;-44
2023/06/28 05:59:04;;;;;;;7.30;4.07;;;;;;;;;;5053948;28;20403;-43
2023/06/28 06:01:30;;;;;;;6.50;3.67;;;;;;;;;;5053614;28;20410;-43
2023/06/28 06:03:56;;;;;;;3.70;3.23;;;;;;;;;;5057909;28;20886;-44
2023/06/28 06:06:22;;;;;;;6.00;4.30;;;;;;;;;;5054454;28;20877;-43
2023/06/28 06:08:48;;;;;;;5.13;3.90;;;;;;;;;;5053746;28;20407;-44
2023/06/28 06:11:14;;;;;;;6.43;3.33;;;;;;;;;;5053190;28;20509;-44
2023/06/28 06:13:41;;;;;;;6.03;3.40;;;;;;;;;;5052610;28;20484;-44
2023/06/28 06:16:06;;;;;;;5.60;3.43;;;;;;;;;;5053092;28;20402;-44
2023/06/28 06:18:36;;;;;;;8.83;3.57;;;;;;;;;;5052885;28;20393;-46
2023/06/28 06:21:02;;;;;;;5.93;3.50;;;;;;;;;;5052423;28;20424;-44
2023/06/28 06:23:28;;;;;;;8.27;3.33;;;;;;;;;;5052756;28;20784;-44
2023/06/28 06:25:54;;;;;;;6.00;3.50;;;;;;;;;;5052624;28;20429;-44
2023/06/28 06:28:20;;;;;;;4.23;3.37;;;;;;;;;;5052766;28;20515;-44
2023/06/28 06:30:46;;;;;;;5.50;3.30;;;;;;;;;;5053001;28;20915;-43
2023/06/28 06:33:12;;;;;;;10.20;4.27;;;;;;;;;;5053011;28;20425;-43
2023/06/28 06:35:38;;;;;;;9.50;4.00;;;;;;;;;;5052604;28;20407;-48
2023/06/28 06:38:04;;;;;;;4.63;2.90;;;;;;;;;;5052655;28;20412;-44
2023/06/28 06:40:30;;;;;;;5.17;3.67;;;;;;;;;;5053224;28;20389;-44
2023/06/28 06:42:56;;;;;;;7.10;3.40;;;;;;;;;;5051411;28;20449;-46
2023/06/28 06:45:22;;;;;;;7.17;3.00;;;;;;;;;;5052259;28;20425;-44
2023/06/28 06:47:48;;;;;;;4.73;3.70;;;;;;;;;;5052373;28;20440;-43
2023/06/28 06:50:14;;;;;;;3.30;3.00;;;;;;;;;;5052365;28;20783;-43
2023/06/28 06:52:40;;;;;;;10.87;3.60;;;;;;;;;;5051881;28;20771;-43
2023/06/28 06:55:06;;;;;;;7.40;3.20;;;;;;;;;;5052750;28;20521;-43
2023/06/28 06:57:32;;;;;;;5.33;3.30;;;;;;;;;;5052655;28;20447;-45
2023/06/28 06:59:58;;;;;;;4.10;3.70;;;;;;;;;;5052401;28;20892;-43
2023/06/28 07:02:24;;;;;;;6.10;3.07;;;;;;;;;;5052701;28;20812;-44
2023/06/28 07:04:50;;;;;;;6.07;3.10;;;;;;;;;;5052613;28;20794;-43
2023/06/28 07:07:16;;;;;;;3.70;2.80;;;;;;;;;;5052165;28;20445;-44
2023/06/28 07:09:42;;;;;;;4.53;2.73;;;;;;;;;;5052299;28;20386;-44
2023/06/28 07:12:09;;;;;;;5.07;2.80;;;;;;;;;;5052718;28;20426;-44
2023/06/28 07:14:35;;;;;;;6.43;3.00;;;;;;;;;;5051443;28;20512;-44
2023/06/28 07:17:01;;;;;;;5.47;3.00;;;;;;;;;;5051864;28;20517;-44
2023/06/28 07:19:26;;;;;;;3.57;3.27;;;;;;;;;;5052232;28;20394;-44
2023/06/28 07:21:52;;;;;;;5.77;2.90;;;;;;;;;;5052133;28;20391;-46
2023/06/28 07:24:18;;;;;;;4.33;2.73;;;;;;;;;;5052255;28;20431;-43
2023/06/28 07:26:44;;;;;;;4.43;2.77;;;;;;;;;;5052352;28;20446;-44
2023/06/28 07:29:10;;;;;;;2.40;2.17;;;;;;;;;;5052306;28;20438;-43
2023/06/28 07:31:36;;;;;;;2.90;2.63;;;;;;;;;;5052125;28;20403;-44
2023/06/28 07:34:04;;;;;;;3.13;2.87;;;;;;;;;;5052074;28;20415;-44
2023/06/28 07:36:31;;;;;;;3.57;3.20;;;;;;;;;;5051943;28;20435;-44
2023/06/28 07:38:57;;;;;;;2.87;2.67;;;;;;;;;;5052155;28;20422;-43
2023/06/28 07:41:23;;;;;;;3.57;2.83;;;;;;;;;;5052962;28;20423;-43
2023/06/28 07:43:49;;;;;;;3.93;2.47;;;;;;;;;;5051168;28;20436;-43
2023/06/28 07:46:15;;;;;;;3.57;2.90;;;;;;;;;;5051294;28;20558;-44
2023/06/28 07:48:41;;;;;;;4.73;2.97;;;;;;;;;;5051116;28;20912;-45
2023/06/28 07:51:07;;;;;;;5.10;2.63;;;;;;;;;;5033274;28;20421;-44
2023/06/28 07:53:33;;;;;;;7.83;2.97;;;;;;;;;;5051574;28;20412;-43
2023/06/28 07:55:59;;;;;;;5.33;3.10;;;;;;;;;;5051716;28;20416;-45
2023/06/28 07:58:25;;;;;;;3.47;2.70;;;;;;;;;;5051689;28;20385;-45
2023/06/28 08:00:51;;;;;;;8.23;2.63;;;;;;;;;;5051526;28;20497;-43
2023/06/28 08:03:19;;;;;;;4.90;2.40;;;;;;;;;;5051684;28;20408;-44
2023/06/28 08:05:45;;;;;;;3.93;2.40;;;;;;;;;;5051435;28;20473;-44
2023/06/28 08:08:11;;;;;;;3.20;2.90;;;;;;;;;;5051526;28;20553;-43
2023/06/28 08:10:37;;;;;;;4.50;2.70;;;;;;;;;;5051390;28;20416;-43
2023/06/28 08:13:03;;;;;;;8.57;2.67;;;;;;;;;;5050726;28;20438;-43
2023/06/28 08:15:33;;;;;;;3.90;2.80;;;;;;;;;;5051598;28;20443;-44
2023/06/28 08:18:02;;;;;;;4.40;2.90;;;;;;;;;;5051706;28;20941;-43
2023/06/28 08:20:28;;;;;;;4.50;2.27;;;;;;;;;;5051219;28;20443;-43
2023/06/28 08:22:54;;;;;;;5.83;2.43;;;;;;;;;;5051739;28;20815;-43
2023/06/28 08:25:20;;;;;;;6.60;3.30;;;;;;;;;;5051330;28;20416;-43
2023/06/28 08:27:46;;;;;;;4.60;3.33;;;;;;;;;;5047084;28;20778;-43
2023/06/28 08:30:12;;;;;;;5.57;2.43;;;;;;;;;;5055394;28;20418;-43
2023/06/28 08:32:38;;;;;;;4.30;2.33;;;;;;;;;;5055422;28;20407;-43
2023/06/28 08:35:04;;;;;;;10.97;2.67;;;;;;;;;;5055352;28;20807;-45
2023/06/28 08:37:31;;;;;;;3.80;2.37;;;;;;;;;;5056379;28;20443;-44
2023/06/28 08:39:57;;;;;;;3.90;2.43;;;;;;;;;;5055644;28;20805;-44
2023/06/28 08:42:23;;;;;;;4.20;2.80;;;;;;;;;;5055311;28;20470;-44
2023/06/28 08:44:50;;;;;;;7.30;3.37;;;;;;;;;;5054865;28;20750;-44
2023/06/28 08:47:16;;;;;;;5.57;2.20;;;;;;;;;;5055001;28;20532;-43
2023/06/28 08:49:42;;;;;;;5.70;2.77;;;;;;;;;;5054931;28;20451;-43
2023/06/28 08:52:09;;;;;;;5.00;2.30;;;;;;;;;;5054622;28;20436;-43
2023/06/28 08:54:36;;;;;;;4.80;3.00;;;;;;;;;;5055085;28;20419;-45
2023/06/28 08:57:02;;;;;;;2.40;2.07;;;;;;;;;;5041916;28;20436;-44
2023/06/28 08:59:29;;;;;;;2.90;2.30;;;;;;;;;;5055097;28;20428;-44
2023/06/28 09:01:55;;;;;;;12.43;3.30;;;;;;;;;;5054010;28;20452;-45
2023/06/28 09:04:28;;;;;;;3.10;2.67;;;;;;;;;;5054777;28;20424;-43
2023/06/28 09:06:56;;;;;;;2.77;2.50;;;;;;;;;;5054866;28;20470;-43
2023/06/28 09:09:22;;;;;;;5.43;2.70;;;;;;;;;;5053934;28;20434;-43
2023/06/28 09:11:48;;;;;;;3.13;2.30;;;;;;;;;;5054744;28;20427;-43
2023/06/28 09:14:14;;;;;;;5.20;3.80;;;;;;;;;;5054833;28;20891;-43
2023/06/28 09:16:40;;;;;;;5.43;3.07;;;;;;;;;;5054535;28;20427;-43
2023/06/28 09:19:06;;;;;;;5.70;2.87;;;;;;;;;;5054731;28;20429;-43
2023/06/28 09:21:33;;;;;;;4.13;2.73;;;;;;;;;;5054478;28;20416;-44
2023/06/28 09:24:00;;;;;;;3.53;2.30;;;;;;;;;;5054635;28;20417;-44
2023/06/28 09:26:35;;;;;;;2.93;2.63;;;;;;;;;;5054564;28;20464;-44
2023/06/28 09:29:11;;;;;;;3.70;2.50;;;;;;;;;;5054562;28;20493;-43
2023/06/28 09:31:47;;;;;;;3.70;2.60;;;;;;;;;;5053502;28;20413;-43
2023/06/28 09:34:13;;;;;;;3.30;2.87;;;;;;;;;;5053002;28;20569;-44
2023/06/28 09:36:39;;;;;;;4.20;2.50;;;;;;;;;;5054391;28;20510;-44
2023/06/28 09:39:05;;;;;;;4.87;2.40;;;;;;;;;;5054393;28;20415;-43
2023/06/28 09:41:42;;;;;;;5.83;2.67;;;;;;;;;;5054056;28;20417;-43
2023/06/28 09:44:11;;;;;;;4.70;3.10;;;;;;;;;;5054237;28;20785;-43
2023/06/28 09:46:44;;;;;;;6.47;3.13;;;;;;;;;;5054029;28;20467;-44
2023/06/28 09:49:23;;;;;;;4.23;3.07;;;;;;;;;;5054307;28;20418;-43
2023/06/28 09:52:02;;;;;;;3.40;2.70;;;;;;;;;;5054004;28;20412;-43
2023/06/28 09:54:44;;;;;;;4.57;2.87;;;;;;;;;;5054033;28;20929;-44
2023/06/28 09:57:10;;;;;;;4.43;2.60;;;;;;;;;;5054198;28;20523;-43
2023/06/28 09:59:37;;;;;;;3.47;2.83;;;;;;;;;;5052972;28;20417;-44
2023/06/28 10:02:07;;;;;;;4.87;3.00;;;;;;;;;;5053713;28;20421;-44
2023/06/28 10:04:37;;;;;;;10.00;3.40;;;;;;;;;;5054137;28;20820;-44
2023/06/28 10:07:04;;;;;;;12.27;3.13;;;;;;;;;;5053882;28;20493;-44
2023/06/28 10:09:34;;;;;;;4.00;2.77;;;;;;;;;;5053679;28;20509;-43
2023/06/28 10:12:01;;;;;;;5.43;3.63;;;;;;;;;;5053766;28;20467;-43
2023/06/28 10:14:31;;;;;;;3.40;3.10;;;;;;;;;;5053650;28;20441;-43
2023/06/28 10:16:58;;;;;;;5.80;3.30;;;;;;;;;;5053963;28;20512;-44
2023/06/28 10:19:24;;;;;;;6.70;2.93;;;;;;;;;;5053500;28;20413;-44
2023/06/28 10:21:50;;;;;;;4.17;2.90;;;;;;;;;;5053413;28;20978;-45
2023/06/28 10:24:16;;;;;;;5.77;3.20;;;;;;;;;;5053493;28;20493;-46
2023/06/28 10:26:43;;;;;;;5.73;2.90;;;;;;;;;;5052381;28;20463;-45
2023/06/28 10:29:09;;;;;;;3.53;3.07;;;;;;;;;;5053528;28;20414;-43
2023/06/28 10:31:35;;;;;;;6.10;3.33;;;;;;;;;;5052918;28;20772;-44
2023/06/28 10:34:01;;;;;;;6.40;3.23;;;;;;;;;;5053520;28;20459;-45
2023/06/28 10:36:28;;;;;;;11.30;3.43;;;;;;;;;;5053237;28;20433;-45
2023/06/28 10:38:54;;;;;;;6.40;3.90;;;;;;;;;;5053373;28;20492;-44
2023/06/28 10:41:21;;;;;;;6.77;3.73;;;;;;;;;;5052137;28;20504;-44
2023/06/28 10:43:47;;;;;;;6.13;4.10;;;;;;;;;;5052804;28;20410;-43
2023/06/28 10:46:25;;;;;;;6.80;4.43;;;;;;;;;;5052721;28;20536;-45
2023/06/28 10:48:56;;;;;;;9.33;4.50;;;;;;;;;;5053031;28;20437;-43
2023/06/28 10:51:22;;;;;;;8.23;4.30;;;;;;;;;;5051263;28;20444;-43
2023/06/28 10:53:53;;;;;;;8.33;4.23;;;;;;;;;;5052876;28;20421;-45
2023/06/28 10:56:19;;;;;;;4.30;3.07;;;;;;;;;;5052683;28;20429;-44
2023/06/28 10:58:47;;;;;;;4.90;3.20;;;;;;;;;;5052790;28;20760;-43
2023/06/28 11:01:30;;;;;;;9.80;3.60;;;;;;;;;;5052538;28;20409;-43
2023/06/28 11:04:10;;;;;;;6.80;3.13;;;;;;;;;;5052833;28;20413;-44
2023/06/28 11:06:38;;;;;;;7.23;3.70;;;;;;;;;;5052467;28;20467;-43
2023/06/28 11:09:13;;;;;;;9.43;3.70;;;;;;;;;;5052438;28;20419;-43
2023/06/28 11:11:41;;;;;;;3.97;2.50;;;;;;;;;;5043461;28;20841;-43
2023/06/28 11:14:17;;;;;;;8.70;3.27;;;;;;;;;;5052491;28;20414;-43
2023/06/28 11:16:43;;;;;;;7.67;3.97;;;;;;;;;;5051380;28;20465;-43
2023/06/28 11:19:18;;;;;;;13.50;3.30;;;;;;;;;;5052876;28;20417;-43
2023/06/28 11:21:47;;;;;;;4.03;3.37;;;;;;;;;;5052132;28;20575;-43
2023/06/28 11:24:13;;;;;;;5.57;3.60;;;;;;;;;;5051103;28;20421;-45
2023/06/28 11:26:40;;;;;;;10.73;5.20;;;;;;;;;;5052184;28;20472;-44
2023/06/28 11:29:16;;;;;;;8.20;3.77;;;;;;;;;;5052376;28;20929;-44
2023/06/28 11:31:47;;;;;;;9.47;3.10;;;;;;;;;;5052101;28;20401;-43
2023/06/28 11:34:14;;;;;;;5.67;3.70;;;;;;;;;;5052058;28;20443;-45
2023/06/28 11:36:40;;;;;;;6.97;3.67;;;;;;;;;;5052594;28;20434;-43
2023/06/28 11:39:07;;;;;;;4.47;3.73;;;;;;;;;;5034246;28;20431;-43
2023/06/28 11:41:36;;;;;;;5.67;3.47;;;;;;;;;;5051888;28;20425;-43
2023/06/28 11:44:07;;;;;;;9.80;4.23;;;;;;;;;;5052291;28;20461;-47
2023/06/28 11:46:34;;;;;;;6.43;3.50;;;;;;;;;;5048859;28;20470;-43
2023/06/28 11:49:00;;;;;;;4.90;2.87;;;;;;;;;;5045624;28;20436;-43
2023/06/28 11:51:26;;;;;;;6.57;3.33;;;;;;;;;;5048384;28;20420;-42
2023/06/28 11:53:56;;;;;;;8.30;3.93;;;;;;;;;;5051781;28;20532;-42
2023/06/28 11:56:34;;;;;;;6.53;3.80;;;;;;;;;;5051631;28;20548;-43
2023/06/28 11:59:11;;;;;;;6.87;3.97;;;;;;;;;;5051734;28;20465;-48
2023/06/28 12:01:37;;;;;;;5.57;3.60;;;;;;;;;;5051476;28;20415;-47
2023/06/28 12:04:12;;;;;;;18.27;4.73;;;;;;;;;;5051778;28;20500;-48
2023/06/28 12:06:39;;;;;;;5.83;3.00;;;;;;;;;;5051477;28;20547;-46
2023/06/28 12:09:16;;;;;;;10.10;3.70;;;;;;;;;;5051736;28;20416;-47
2023/06/28 12:11:49;;;;;;;7.00;3.80;;;;;;;;;;5044286;28;20443;-46
2023/06/28 12:14:15;;;;;;;4.47;3.87;;;;;;;;;;5051505;28;20535;-47
2023/06/28 12:16:42;;;;;;;6.00;3.53;;;;;;;;;;5050980;28;21022;-47
2023/06/28 12:19:09;;;;;;;4.63;3.50;;;;;;;;;;5051557;28;20903;-46
2023/06/28 12:21:35;;;;;;;7.03;3.23;;;;;;;;;;5051472;28;20424;-47
2023/06/28 12:24:17;;;;;;;3.93;3.20;;;;;;;;;;5051296;28;20421;-48
2023/06/28 12:26:44;;;;;;;6.13;3.57;;;;;;;;;;5051244;28;20468;-47
2023/06/28 12:29:11;;;;;;;8.00;4.00;;;;;;;;;;5051428;28;20420;-47
2023/06/28 12:31:45;;;;;;;7.27;3.97;;;;;;;;;;5051285;28;20435;-48
2023/06/28 12:34:11;;;;;;;5.90;3.70;;;;;;;;;;5051355;28;20902;-48
2023/06/28 12:36:41;;;;;;;6.33;4.37;;;;;;;;;;5049755;28;20830;-48
2023/06/28 12:39:08;;;;;;;5.57;3.33;;;;;;;;;;5050774;28;20931;-47
2023/06/28 12:41:34;;;;;;;7.90;3.97;;;;;;;;;;5048108;28;20508;-49
2023/06/28 12:44:00;;;;;;;3.97;3.37;;;;;;;;;;5050600;28;20942;-49
2023/06/28 12:46:28;;;;;;;4.20;3.20;;;;;;;;;;5051188;28;20967;-49
2023/06/28 12:48:55;;;;;;;7.23;3.00;;;;;;;;;;5051413;28;20413;-49
2023/06/28 12:51:21;;;;;;;5.20;3.30;;;;;;;;;;5050141;28;20433;-47
2023/06/28 12:53:47;;;;;;;4.73;3.10;;;;;;;;;;5051065;28;20463;-49
2023/06/28 12:56:13;;;;;;;7.30;3.30;;;;;;;;;;5049931;28;20452;-45
2023/06/28 12:58:39;;;;;;;13.10;3.60;;;;;;;;;;5050807;28;20406;-43
2023/06/28 13:01:05;;;;;;;6.37;3.53;;;;;;;;;;5051158;28;20401;-43
2023/06/28 13:03:31;;;;;;;4.70;3.20;;;;;;;;;;5048631;28;21732;-43
2023/06/28 13:05:57;;;;;;;6.60;3.90;;;;;;;;;;5050753;28;20451;-44
2023/06/28 13:08:25;;;;;;;5.47;3.80;;;;;;;;;;5049965;28;20476;-43
2023/06/28 13:10:51;;;;;;;7.03;3.80;;;;;;;;;;5053387;28;20445;-44
2023/06/28 13:13:17;;;;;;;5.73;3.90;;;;;;;;;;5049659;28;20464;-45
2023/06/28 13:15:43;;;;;;;3.50;3.20;;;;;;;;;;5054751;28;20432;-47
2023/06/28 13:18:09;;;;;;;4.40;3.73;;;;;;;;;;5054361;28;20451;-43
2023/06/28 13:20:34;;;;;;;6.07;3.33;;;;;;;;;;5053264;28;21124;-43
2023/06/28 13:23:00;;;;;;;9.57;4.10;;;;;;;;;;5052120;28;20512;-43
2023/06/28 13:25:26;;;;;;;8.00;4.00;;;;;;;;;;5052711;28;20436;-43
2023/06/28 13:27:52;;;;;;;5.50;3.90;;;;;;;;;;5052574;28;20463;-43
2023/06/28 13:30:20;;;;;;;4.03;3.20;;;;;;;;;;5053566;28;20512;-43
2023/06/28 13:32:46;;;;;;;3.83;3.30;;;;;;;;;;5054074;28;20409;-45
2023/06/28 13:35:12;;;;;;;3.47;3.13;;;;;;;;;;5052469;28;20435;-43
2023/06/28 13:37:38;;;;;;;4.60;2.83;;;;;;;;;;5053252;28;20930;-43
2023/06/28 13:40:04;;;;;;;5.70;3.63;;;;;;;;;;5054123;28;20413;-42
2023/06/28 13:42:30;;;;;;;5.43;3.43;;;;;;;;;;5051387;28;20931;-42
2023/06/28 13:44:56;;;;;;;5.23;3.23;;;;;;;;;;5054222;28;20406;-42
2023/06/28 13:47:22;;;;;;;6.73;4.07;;;;;;;;;;5052069;28;20544;-43
2023/06/28 13:49:48;;;;;;;5.40;3.93;;;;;;;;;;5042521;28;20432;-43
2023/06/28 13:52:16;;;;;;;4.70;3.50;;;;;;;;;;5053877;28;20913;-43
2023/06/28 13:54:42;;;;;;;10.23;4.00;;;;;;;;;;5053970;28;20409;-43
2023/06/28 13:57:08;;;;;;;6.47;3.20;;;;;;;;;;5053980;28;20521;-43
2023/06/28 13:59:34;;;;;;;4.43;3.40;;;;;;;;;;5053916;28;20504;-44
2023/06/28 14:02:00;;;;;;;4.33;3.20;;;;;;;;;;5053681;28;20417;-46
2023/06/28 14:04:26;;;;;;;6.07;3.57;;;;;;;;;;5053762;28;20421;-42
2023/06/28 14:06:52;;;;;;;8.63;3.47;;;;;;;;;;5053559;28;20508;-43
2023/06/28 14:09:18;;;;;;;2.90;2.70;;;;;;;;;;5053726;28;20405;-43
2023/06/28 14:11:44;;;;;;;5.00;3.40;;;;;;;;;;5053430;28;20408;-43
2023/06/28 14:14:10;;;;;;;6.40;3.20;;;;;;;;;;5053615;28;20402;-42
2023/06/28 14:16:36;;;;;;;6.07;3.20;;;;;;;;;;5052628;28;20452;-42
2023/06/28 14:19:02;;;;;;;6.47;3.20;;;;;;;;;;5053735;28;20594;-43
2023/06/28 14:21:28;;;;;;;9.97;3.60;;;;;;;;;;5053262;28;20768;-43
2023/06/28 14:23:54;;;;;;;5.30;3.60;;;;;;;;;;5052478;28;20558;-43
2023/06/28 14:26:20;;;;;;;6.30;3.23;;;;;;;;;;5052036;28;20524;-43
2023/06/28 14:28:46;;;;;;;6.10;4.20;;;;;;;;;;5053502;28;20418;-44
2023/06/28 14:31:15;;;;;;;6.37;3.10;;;;;;;;;;5053013;28;20424;-51
2023/06/28 14:33:47;;;;;;;6.20;3.30;;;;;;;;;;5053315;28;20401;-44
2023/06/28 14:36:13;;;;;;;3.47;3.17;;;;;;;;;;5052440;28;20453;-44
2023/06/28 14:38:39;;;;;;;9.60;3.87;;;;;;;;;;5053203;28;20463;-43
2023/06/28 14:41:05;;;;;;;4.40;3.37;;;;;;;;;;5052902;28;20420;-43